sensor_id;sensor_type;location;lat;lon;timestamp;temperature;humidity
20345;DHT22;10330;48.816;9.278;2023-04-01T00:02:22;9.00;99.90
20345;DHT22;10330;48.816;9.278;2023-04-01T00:05:10;9.00;99.90
20345;DHT22;10330;48.816;9.278;2023-04-01T00:07:40;9.00;99.90
20345;DHT22;10330;48.816;9.278;2023-04-01T00:10:08;9.00;99.90
20345;DHT22;10330;48.816;9.278;2023-04-01T00:12:35;9.00;99.90
20345;DHT22;10330;48.816;9.278;2023-04-01T00:15:02;9.00;99.90
20345;DHT22;10330;48.816;9.278;2023-04-01T00:17:28;9.00;99.90
20345;DHT22;10330;48.816;9.278;2023-04-01T00:19:55;9.00;99.90
20345;DHT22;10330;48.816;9.278;2023-04-01T00:22:23;9.00;99.90
20345;DHT22;10330;48.816;9.278;2023-04-01T00:24:49;9.00;99.90
20345;DHT22;10330;48.816;9.278;2023-04-01T00:27:16;9.00;99.90
20345;DHT22;10330;48.816;9.278;2023-04-01T00:29:43;9.00;99.90
20345;DHT22;10330;48.816;9.278;2023-04-01T00:32:10;9.00;99.90
20345;DHT22;10330;48.816;9.278;2023-04-01T00:34:36;9.00;99.90
20345;DHT22;10330;48.816;9.278;2023-04-01T00:37:04;8.90;99.90
20345;DHT22;10330;48.816;9.278;2023-04-01T00:39:31;9.10;99.90
20345;DHT22;10330;48.816;9.278;2023-04-01T00:41:59;9.00;99.90
20345;DHT22;10330;48.816;9.278;2023-04-01T00:44:33;8.90;99.90
20345;DHT22;10330;48.816;9.278;2023-04-01T00:47:00;8.90;99.90
20345;DHT22;10330;48.816;9.278;2023-04-01T00:49:31;9.00;99.90
20345;DHT22;10330;48.816;9.278;2023-04-01T00:52:00;8.90;99.90
20345;DHT22;10330;48.816;9.278;2023-04-01T00:54:28;9.00;99.90
20345;DHT22;10330;48.816;9.278;2023-04-01T00:57:02;9.00;99.90
20345;DHT22;10330;48.816;9.278;2023-04-01T00:59:34;9.10;99.90
20345;DHT22;10330;48.816;9.278;2023-04-01T01:02:02;9.10;99.90
20345;DHT22;10330;48.816;9.278;2023-04-01T01:04:31;9.20;99.90
20345;DHT22;10330;48.816;9.278;2023-04-01T01:07:24;9.10;99.90
20345;DHT22;10330;48.816;9.278;2023-04-01T01:10:11;9.10;99.90
20345;DHT22;10330;48.816;9.278;2023-04-01T01:12:46;9.10;99.90
20345;DHT22;10330;48.816;9.278;2023-04-01T01:15:24;9.10;99.90
20345;DHT22;10330;48.816;9.278;2023-04-01T01:18:10;9.20;99.90
20345;DHT22;10330;48.816;9.278;2023-04-01T01:21:02;9.10;99.90
20345;DHT22;10330;48.816;9.278;2023-04-01T01:24:11;9.10;99.90
20345;DHT22;10330;48.816;9.278;2023-04-01T01:33:21;9.00;99.90
20345;DHT22;10330;48.816;9.278;2023-04-01T01:35:35;9.00;99.90
20345;DHT22;10330;48.816;9.278;2023-04-01T01:38:11;9.10;99.90
20345;DHT22;10330;48.816;9.278;2023-04-01T01:40:46;9.00;99.90
20345;DHT22;10330;48.816;9.278;2023-04-01T01:43:17;9.10;99.90
20345;DHT22;10330;48.816;9.278;2023-04-01T01:45:52;9.10;99.90
20345;DHT22;10330;48.816;9.278;2023-04-01T01:48:20;9.10;99.90
20345;DHT22;10330;48.816;9.278;2023-04-01T01:50:47;9.10;99.90
20345;DHT22;10330;48.816;9.278;2023-04-01T01:53:15;9.00;99.90
20345;DHT22;10330;48.816;9.278;2023-04-01T01:55:44;9.00;99.90
20345;DHT22;10330;48.816;9.278;2023-04-01T01:58:45;9.00;99.90
20345;DHT22;10330;48.816;9.278;2023-04-01T02:01:19;9.00;99.90
20345;DHT22;10330;48.816;9.278;2023-04-01T02:03:47;9.00;99.90
20345;DHT22;10330;48.816;9.278;2023-04-01T02:06:17;8.90;99.90
20345;DHT22;10330;48.816;9.278;2023-04-01T02:09:17;8.90;99.90
20345;DHT22;10330;48.816;9.278;2023-04-01T02:11:58;8.90;99.90
20345;DHT22;10330;48.816;9.278;2023-04-01T02:17:11;8.80;99.90
20345;DHT22;10330;48.816;9.278;2023-04-01T02:19:47;8.80;99.90
20345;DHT22;10330;48.816;9.278;2023-04-01T02:22:18;8.80;99.90
20345;DHT22;10330;48.816;9.278;2023-04-01T02:24:49;8.80;99.90
20345;DHT22;10330;48.816;9.278;2023-04-01T02:27:16;8.80;99.90
20345;DHT22;10330;48.816;9.278;2023-04-01T02:29:42;8.80;99.90
20345;DHT22;10330;48.816;9.278;2023-04-01T02:32:10;8.80;99.90
20345;DHT22;10330;48.816;9.278;2023-04-01T02:34:36;8.80;99.90
20345;DHT22;10330;48.816;9.278;2023-04-01T02:37:03;8.70;99.90
20345;DHT22;10330;48.816;9.278;2023-04-01T02:39:30;8.70;99.90
20345;DHT22;10330;48.816;9.278;2023-04-01T02:41:56;8.70;99.90
20345;DHT22;10330;48.816;9.278;2023-04-01T02:44:23;8.80;99.90
20345;DHT22;10330;48.816;9.278;2023-04-01T02:46:49;8.80;99.90
20345;DHT22;10330;48.816;9.278;2023-04-01T02:49:15;8.60;99.90
20345;DHT22;10330;48.816;9.278;2023-04-01T02:51:41;8.60;99.90
20345;DHT22;10330;48.816;9.278;2023-04-01T02:54:09;8.70;99.90
20345;DHT22;10330;48.816;9.278;2023-04-01T02:56:35;8.60;99.90
20345;DHT22;10330;48.816;9.278;2023-04-01T02:59:02;8.60;99.90
20345;DHT22;10330;48.816;9.278;2023-04-01T03:01:28;8.60;99.90
20345;DHT22;10330;48.816;9.278;2023-04-01T03:03:54;8.60;99.90
20345;DHT22;10330;48.816;9.278;2023-04-01T03:06:20;8.50;99.90
20345;DHT22;10330;48.816;9.278;2023-04-01T03:08:46;8.50;99.90
20345;DHT22;10330;48.816;9.278;2023-04-01T03:11:13;8.40;99.90
20345;DHT22;10330;48.816;9.278;2023-04-01T03:13:39;8.40;99.90
20345;DHT22;10330;48.816;9.278;2023-04-01T03:16:06;8.50;99.90
20345;DHT22;10330;48.816;9.278;2023-04-01T03:18:32;8.50;99.90
20345;DHT22;10330;48.816;9.278;2023-04-01T03:21:13;8.50;99.90
20345;DHT22;10330;48.816;9.278;2023-04-01T03:23:43;8.50;99.90
20345;DHT22;10330;48.816;9.278;2023-04-01T03:26:09;8.50;99.90
20345;DHT22;10330;48.816;9.278;2023-04-01T03:28:36;8.50;99.90
20345;DHT22;10330;48.816;9.278;2023-04-01T03:31:02;8.50;99.90
20345;DHT22;10330;48.816;9.278;2023-04-01T03:33:35;8.60;99.90
20345;DHT22;10330;48.816;9.278;2023-04-01T03:36:02;8.50;99.90
20345;DHT22;10330;48.816;9.278;2023-04-01T03:38:33;8.40;99.90
20345;DHT22;10330;48.816;9.278;2023-04-01T03:40:59;8.40;99.90
20345;DHT22;10330;48.816;9.278;2023-04-01T03:43:26;8.40;99.90
20345;DHT22;10330;48.816;9.278;2023-04-01T03:45:52;8.50;99.90
20345;DHT22;10330;48.816;9.278;2023-04-01T03:48:20;8.40;99.90
20345;DHT22;10330;48.816;9.278;2023-04-01T03:50:47;8.40;99.90
20345;DHT22;10330;48.816;9.278;2023-04-01T03:53:14;8.40;99.90
20345;DHT22;10330;48.816;9.278;2023-04-01T03:55:43;8.40;99.90
20345;DHT22;10330;48.816;9.278;2023-04-01T03:58:09;8.50;99.90
20345;DHT22;10330;48.816;9.278;2023-04-01T04:00:36;8.50;99.90
20345;DHT22;10330;48.816;9.278;2023-04-01T04:03:03;8.40;99.90
20345;DHT22;10330;48.816;9.278;2023-04-01T04:05:33;8.40;99.90
20345;DHT22;10330;48.816;9.278;2023-04-01T04:08:00;8.40;99.90
20345;DHT22;10330;48.816;9.278;2023-04-01T04:10:26;8.40;99.90
20345;DHT22;10330;48.816;9.278;2023-04-01T04:12:52;8.40;99.90
20345;DHT22;10330;48.816;9.278;2023-04-01T04:15:21;8.30;99.90
20345;DHT22;10330;48.816;9.278;2023-04-01T04:17:48;8.30;99.90
20345;DHT22;10330;48.816;9.278;2023-04-01T04:20:15;8.30;99.90
20345;DHT22;10330;48.816;9.278;2023-04-01T04:22:41;8.30;99.90
20345;DHT22;10330;48.816;9.278;2023-04-01T04:25:08;8.30;99.90
20345;DHT22;10330;48.816;9.278;2023-04-01T04:27:35;8.40;99.90
20345;DHT22;10330;48.816;9.278;2023-04-01T04:30:07;8.30;99.90
20345;DHT22;10330;48.816;9.278;2023-04-01T04:32:34;8.30;99.90
20345;DHT22;10330;48.816;9.278;2023-04-01T04:35:01;8.30;99.90
20345;DHT22;10330;48.816;9.278;2023-04-01T04:37:27;8.30;99.90
20345;DHT22;10330;48.816;9.278;2023-04-01T04:39:54;8.30;99.90
20345;DHT22;10330;48.816;9.278;2023-04-01T04:42:20;8.10;99.90
20345;DHT22;10330;48.816;9.278;2023-04-01T04:44:46;8.20;99.90
20345;DHT22;10330;48.816;9.278;2023-04-01T04:47:13;8.00;99.90
20345;DHT22;10330;48.816;9.278;2023-04-01T04:49:39;8.00;99.90
20345;DHT22;10330;48.816;9.278;2023-04-01T04:52:08;8.00;99.90
20345;DHT22;10330;48.816;9.278;2023-04-01T04:54:35;8.00;99.90
20345;DHT22;10330;48.816;9.278;2023-04-01T04:57:04;7.90;99.90
20345;DHT22;10330;48.816;9.278;2023-04-01T04:59:36;8.00;99.90
20345;DHT22;10330;48.816;9.278;2023-04-01T05:02:07;8.00;99.90
20345;DHT22;10330;48.816;9.278;2023-04-01T05:04:35;8.00;99.90
20345;DHT22;10330;48.816;9.278;2023-04-01T05:07:01;8.00;99.90
20345;DHT22;10330;48.816;9.278;2023-04-01T05:09:28;8.10;99.90
20345;DHT22;10330;48.816;9.278;2023-04-01T05:11:55;8.10;99.90
20345;DHT22;10330;48.816;9.278;2023-04-01T05:14:22;7.90;99.90
20345;DHT22;10330;48.816;9.278;2023-04-01T05:16:56;8.00;99.90
20345;DHT22;10330;48.816;9.278;2023-04-01T05:19:22;8.00;99.90
20345;DHT22;10330;48.816;9.278;2023-04-01T05:21:49;8.00;99.90
20345;DHT22;10330;48.816;9.278;2023-04-01T05:24:16;8.00;99.90
20345;DHT22;10330;48.816;9.278;2023-04-01T05:26:42;8.00;99.90
20345;DHT22;10330;48.816;9.278;2023-04-01T05:29:08;8.00;99.90
20345;DHT22;10330;48.816;9.278;2023-04-01T05:31:35;8.00;99.90
20345;DHT22;10330;48.816;9.278;2023-04-01T05:34:03;8.00;99.90
20345;DHT22;10330;48.816;9.278;2023-04-01T05:36:29;8.00;99.90
20345;DHT22;10330;48.816;9.278;2023-04-01T05:38:56;8.10;99.90
20345;DHT22;10330;48.816;9.278;2023-04-01T05:41:24;8.00;99.90
20345;DHT22;10330;48.816;9.278;2023-04-01T05:43:51;8.10;99.90
20345;DHT22;10330;48.816;9.278;2023-04-01T05:46:52;8.20;99.90
20345;DHT22;10330;48.816;9.278;2023-04-01T05:49:24;8.30;99.90
20345;DHT22;10330;48.816;9.278;2023-04-01T05:51:50;8.30;99.90
20345;DHT22;10330;48.816;9.278;2023-04-01T05:54:18;8.30;99.90
20345;DHT22;10330;48.816;9.278;2023-04-01T05:56:45;8.40;99.90
20345;DHT22;10330;48.816;9.278;2023-04-01T05:59:12;8.60;99.90
20345;DHT22;10330;48.816;9.278;2023-04-01T06:01:38;8.60;99.90
20345;DHT22;10330;48.816;9.278;2023-04-01T06:04:05;8.60;99.90
20345;DHT22;10330;48.816;9.278;2023-04-01T06:06:32;8.70;99.90
20345;DHT22;10330;48.816;9.278;2023-04-01T06:09:19;8.70;99.90
20345;DHT22;10330;48.816;9.278;2023-04-01T06:20:12;8.90;99.90
20345;DHT22;10330;48.816;9.278;2023-04-01T06:25:49;9.00;99.90
20345;DHT22;10330;48.816;9.278;2023-04-01T06:28:41;9.10;99.90
20345;DHT22;10330;48.816;9.278;2023-04-01T06:40:11;9.30;99.90
20345;DHT22;10330;48.816;9.278;2023-04-01T06:58:31;9.50;99.90
20345;DHT22;10330;48.816;9.278;2023-04-01T07:01:03;9.50;99.90
20345;DHT22;10330;48.816;9.278;2023-04-01T07:03:41;9.50;99.90
20345;DHT22;10330;48.816;9.278;2023-04-01T07:06:14;9.50;99.90
20345;DHT22;10330;48.816;9.278;2023-04-01T07:08:53;9.60;99.90
20345;DHT22;10330;48.816;9.278;2023-04-01T07:11:32;9.70;99.90
20345;DHT22;10330;48.816;9.278;2023-04-01T07:14:33;9.70;99.90
20345;DHT22;10330;48.816;9.278;2023-04-01T07:17:23;9.80;99.90
20345;DHT22;10330;48.816;9.278;2023-04-01T07:22:39;9.70;99.90
20345;DHT22;10330;48.816;9.278;2023-04-01T07:25:23;9.70;99.90
20345;DHT22;10330;48.816;9.278;2023-04-01T07:28:05;9.70;99.90
20345;DHT22;10330;48.816;9.278;2023-04-01T07:33:37;9.60;99.90
20345;DHT22;10330;48.816;9.278;2023-04-01T07:36:34;9.70;99.90
20345;DHT22;10330;48.816;9.278;2023-04-01T07:42:34;9.70;99.90
20345;DHT22;10330;48.816;9.278;2023-04-01T07:54:09;9.70;99.90
20345;DHT22;10330;48.816;9.278;2023-04-01T08:02:30;9.80;99.90
20345;DHT22;10330;48.816;9.278;2023-04-01T08:05:14;9.70;99.90
20345;DHT22;10330;48.816;9.278;2023-04-01T08:11:29;9.80;99.90
20345;DHT22;10330;48.816;9.278;2023-04-01T08:18:11;9.80;99.90
20345;DHT22;10330;48.816;9.278;2023-04-01T08:21:01;9.90;99.90
20345;DHT22;10330;48.816;9.278;2023-04-01T08:23:43;9.90;99.90
20345;DHT22;10330;48.816;9.278;2023-04-01T08:32:25;10.00;99.90
20345;DHT22;10330;48.816;9.278;2023-04-01T08:35:14;10.10;99.90
20345;DHT22;10330;48.816;9.278;2023-04-01T08:37:43;10.10;99.90
20345;DHT22;10330;48.816;9.278;2023-04-01T08:40:57;10.10;99.90
20345;DHT22;10330;48.816;9.278;2023-04-01T08:46:32;9.90;99.90
20345;DHT22;10330;48.816;9.278;2023-04-01T08:53:09;9.90;99.90
20345;DHT22;10330;48.816;9.278;2023-04-01T09:02:02;9.50;99.90
20345;DHT22;10330;48.816;9.278;2023-04-01T09:31:39;9.50;99.90
20345;DHT22;10330;48.816;9.278;2023-04-01T10:05:27;9.90;99.90
20345;DHT22;10330;48.816;9.278;2023-04-01T10:08:21;9.90;99.90
20345;DHT22;10330;48.816;9.278;2023-04-01T10:11:10;9.90;99.90
20345;DHT22;10330;48.816;9.278;2023-04-01T10:13:43;10.00;99.90
20345;DHT22;10330;48.816;9.278;2023-04-01T10:27:28;10.20;99.90
20345;DHT22;10330;48.816;9.278;2023-04-01T10:30:35;10.40;99.90
20345;DHT22;10330;48.816;9.278;2023-04-01T10:45:32;10.30;99.90
20345;DHT22;10330;48.816;9.278;2023-04-01T11:22:05;10.50;99.90
20345;DHT22;10330;48.816;9.278;2023-04-01T11:27:06;10.50;99.90
20345;DHT22;10330;48.816;9.278;2023-04-01T11:32:46;10.60;99.90
20345;DHT22;10330;48.816;9.278;2023-04-01T11:35:32;10.70;99.90
20345;DHT22;10330;48.816;9.278;2023-04-01T11:47:45;10.90;99.90
20345;DHT22;10330;48.816;9.278;2023-04-01T11:50:45;11.00;99.90
20345;DHT22;10330;48.816;9.278;2023-04-01T12:04:54;11.00;99.90
20345;DHT22;10330;48.816;9.278;2023-04-01T12:10:49;10.90;99.90
20345;DHT22;10330;48.816;9.278;2023-04-01T12:17:49;10.90;99.90
20345;DHT22;10330;48.816;9.278;2023-04-01T12:34:52;10.80;99.90
20345;DHT22;10330;48.816;9.278;2023-04-01T12:37:39;10.90;99.90
20345;DHT22;10330;48.816;9.278;2023-04-01T12:43:14;10.90;99.90
20345;DHT22;10330;48.816;9.278;2023-04-01T13:01:23;11.10;99.90
20345;DHT22;10330;48.816;9.278;2023-04-01T13:06:57;11.20;99.90
20345;DHT22;10330;48.816;9.278;2023-04-01T13:10:15;11.20;99.90
20345;DHT22;10330;48.816;9.278;2023-04-01T13:13:06;11.20;99.90
20345;DHT22;10330;48.816;9.278;2023-04-01T13:23:07;11.20;99.90
20345;DHT22;10330;48.816;9.278;2023-04-01T13:26:09;11.10;99.90
20345;DHT22;10330;48.816;9.278;2023-04-01T13:38:03;11.20;99.90
20345;DHT22;10330;48.816;9.278;2023-04-01T13:40:54;11.20;99.90
20345;DHT22;10330;48.816;9.278;2023-04-01T13:44:12;11.20;99.90
20345;DHT22;10330;48.816;9.278;2023-04-01T13:53:45;11.30;99.90
20345;DHT22;10330;48.816;9.278;2023-04-01T14:06:08;11.40;99.90
20345;DHT22;10330;48.816;9.278;2023-04-01T14:17:58;11.20;99.90
20345;DHT22;10330;48.816;9.278;2023-04-01T14:26:50;11.20;99.90
20345;DHT22;10330;48.816;9.278;2023-04-01T14:51:18;10.60;99.90
20345;DHT22;10330;48.816;9.278;2023-04-01T14:54:17;10.60;99.90
20345;DHT22;10330;48.816;9.278;2023-04-01T14:57:10;10.60;99.90
20345;DHT22;10330;48.816;9.278;2023-04-01T15:03:20;10.70;99.90
20345;DHT22;10330;48.816;9.278;2023-04-01T15:31:36;10.90;99.90
20345;DHT22;10330;48.816;9.278;2023-04-01T15:34:42;10.80;99.90
20345;DHT22;10330;48.816;9.278;2023-04-01T15:43:31;11.00;99.90
20345;DHT22;10330;48.816;9.278;2023-04-01T15:52:43;10.90;99.90
20345;DHT22;10330;48.816;9.278;2023-04-01T15:59:44;10.80;99.90
20345;DHT22;10330;48.816;9.278;2023-04-01T16:02:32;10.80;99.90
20345;DHT22;10330;48.816;9.278;2023-04-01T16:05:32;10.90;99.90
20345;DHT22;10330;48.816;9.278;2023-04-01T16:08:30;10.90;99.90
20345;DHT22;10330;48.816;9.278;2023-04-01T16:23:04;10.90;99.90
20345;DHT22;10330;48.816;9.278;2023-04-01T16:28:13;10.90;99.90
20345;DHT22;10330;48.816;9.278;2023-04-01T16:31:03;10.90;99.90
20345;DHT22;10330;48.816;9.278;2023-04-01T16:33:52;10.80;99.90
20345;DHT22;10330;48.816;9.278;2023-04-01T16:39:33;10.90;99.90
20345;DHT22;10330;48.816;9.278;2023-04-01T16:44:59;10.70;99.90
20345;DHT22;10330;48.816;9.278;2023-04-01T16:47:58;10.70;99.90
20345;DHT22;10330;48.816;9.278;2023-04-01T17:04:31;10.60;99.90
20345;DHT22;10330;48.816;9.278;2023-04-01T17:07:20;10.60;99.90
20345;DHT22;10330;48.816;9.278;2023-04-01T17:15:35;10.60;99.90
20345;DHT22;10330;48.816;9.278;2023-04-01T17:21:15;10.60;99.90
20345;DHT22;10330;48.816;9.278;2023-04-01T17:24:25;10.60;99.90
20345;DHT22;10330;48.816;9.278;2023-04-01T17:26:40;10.70;99.90
20345;DHT22;10330;48.816;9.278;2023-04-01T17:32:21;10.60;99.90
20345;DHT22;10330;48.816;9.278;2023-04-01T17:35:28;10.60;99.90
20345;DHT22;10330;48.816;9.278;2023-04-01T17:37:59;10.60;99.90
20345;DHT22;10330;48.816;9.278;2023-04-01T17:46:24;10.70;99.90
20345;DHT22;10330;48.816;9.278;2023-04-01T17:49:23;10.70;99.90
20345;DHT22;10330;48.816;9.278;2023-04-01T18:12:21;10.50;99.90
20345;DHT22;10330;48.816;9.278;2023-04-01T18:15:21;10.40;99.90
20345;DHT22;10330;48.816;9.278;2023-04-01T18:25:33;10.10;99.90
20345;DHT22;10330;48.816;9.278;2023-04-01T18:30:55;10.00;99.90
20345;DHT22;10330;48.816;9.278;2023-04-01T18:33:29;9.90;99.90
20345;DHT22;10330;48.816;9.278;2023-04-01T18:36:26;9.90;99.90
20345;DHT22;10330;48.816;9.278;2023-04-01T18:39:10;9.90;99.90
20345;DHT22;10330;48.816;9.278;2023-04-01T18:47:35;9.70;99.90
20345;DHT22;10330;48.816;9.278;2023-04-01T18:50:24;9.80;99.90
20345;DHT22;10330;48.816;9.278;2023-04-01T18:53:34;9.80;99.90
20345;DHT22;10330;48.816;9.278;2023-04-01T18:56:09;9.80;99.90
20345;DHT22;10330;48.816;9.278;2023-04-01T19:06:30;9.60;99.90
20345;DHT22;10330;48.816;9.278;2023-04-01T19:09:15;9.50;99.90
20345;DHT22;10330;48.816;9.278;2023-04-01T19:12:07;9.50;99.90
20345;DHT22;10330;48.816;9.278;2023-04-01T19:17:18;9.40;99.90
20345;DHT22;10330;48.816;9.278;2023-04-01T19:19:55;9.40;99.90
20345;DHT22;10330;48.816;9.278;2023-04-01T19:22:42;9.30;99.90
20345;DHT22;10330;48.816;9.278;2023-04-01T19:27:53;9.20;99.90
20345;DHT22;10330;48.816;9.278;2023-04-01T19:38:40;9.10;99.90
20345;DHT22;10330;48.816;9.278;2023-04-01T19:46:51;9.00;99.90
20345;DHT22;10330;48.816;9.278;2023-04-01T19:52:39;8.90;99.90
20345;DHT22;10330;48.816;9.278;2023-04-01T20:00:57;8.90;99.90
20345;DHT22;10330;48.816;9.278;2023-04-01T20:13:59;8.90;99.90
20345;DHT22;10330;48.816;9.278;2023-04-01T20:19:27;9.00;99.90
20345;DHT22;10330;48.816;9.278;2023-04-01T20:21:57;9.00;99.90
20345;DHT22;10330;48.816;9.278;2023-04-01T20:24:41;9.10;99.90
20345;DHT22;10330;48.816;9.278;2023-04-01T20:27:18;9.20;99.90
20345;DHT22;10330;48.816;9.278;2023-04-01T20:33:06;9.20;99.90
20345;DHT22;10330;48.816;9.278;2023-04-01T20:49:39;9.30;99.90
20345;DHT22;10330;48.816;9.278;2023-04-01T20:57:44;9.40;99.90
20345;DHT22;10330;48.816;9.278;2023-04-01T21:03:08;9.30;99.90
20345;DHT22;10330;48.816;9.278;2023-04-01T21:05:57;9.30;99.90
20345;DHT22;10330;48.816;9.278;2023-04-01T21:11:31;9.30;99.90
20345;DHT22;10330;48.816;9.278;2023-04-01T21:25:37;9.20;99.90
20345;DHT22;10330;48.816;9.278;2023-04-01T21:31:35;9.20;99.90
20345;DHT22;10330;48.816;9.278;2023-04-01T21:37:01;9.30;99.90
20345;DHT22;10330;48.816;9.278;2023-04-01T21:42:40;9.20;99.90
20345;DHT22;10330;48.816;9.278;2023-04-01T21:45:20;9.20;99.90
20345;DHT22;10330;48.816;9.278;2023-04-01T21:51:04;9.20;99.90
20345;DHT22;10330;48.816;9.278;2023-04-01T22:07:21;9.10;99.90
20345;DHT22;10330;48.816;9.278;2023-04-01T22:10:24;9.10;99.90
20345;DHT22;10330;48.816;9.278;2023-04-01T22:13:20;9.10;99.90
20345;DHT22;10330;48.816;9.278;2023-04-01T22:16:15;9.10;99.90
20345;DHT22;10330;48.816;9.278;2023-04-01T22:21:44;9.10;99.90
20345;DHT22;10330;48.816;9.278;2023-04-01T22:24:34;9.00;99.90
20345;DHT22;10330;48.816;9.278;2023-04-01T22:32:29;9.00;99.90
20345;DHT22;10330;48.816;9.278;2023-04-01T22:37:58;9.00;99.90
20345;DHT22;10330;48.816;9.278;2023-04-01T22:43:05;9.00;99.90
20345;DHT22;10330;48.816;9.278;2023-04-01T22:53:59;9.00;99.90
20345;DHT22;10330;48.816;9.278;2023-04-01T22:56:50;9.00;99.90
20345;DHT22;10330;48.816;9.278;2023-04-01T23:02:18;9.00;99.90
20345;DHT22;10330;48.816;9.278;2023-04-01T23:04:52;9.10;99.90
20345;DHT22;10330;48.816;9.278;2023-04-01T23:09:56;9.10;99.90
20345;DHT22;10330;48.816;9.278;2023-04-01T23:12:25;9.00;99.90
20345;DHT22;10330;48.816;9.278;2023-04-01T23:14:58;9.10;99.90
20345;DHT22;10330;48.816;9.278;2023-04-01T23:17:36;9.10;99.90
20345;DHT22;10330;48.816;9.278;2023-04-01T23:20:22;9.10;99.90
20345;DHT22;10330;48.816;9.278;2023-04-01T23:23:17;9.10;99.90
20345;DHT22;10330;48.816;9.278;2023-04-01T23:26:00;9.10;99.90
20345;DHT22;10330;48.816;9.278;2023-04-01T23:28:53;9.10;99.90
20345;DHT22;10330;48.816;9.278;2023-04-01T23:31:38;9.10;99.90
20345;DHT22;10330;48.816;9.278;2023-04-01T23:36:46;9.10;99.90
20345;DHT22;10330;48.816;9.278;2023-04-01T23:41:49;9.00;99.90
20345;DHT22;10330;48.816;9.278;2023-04-01T23:44:16;9.10;99.90
20345;DHT22;10330;48.816;9.278;2023-04-01T23:46:45;9.00;99.90
20345;DHT22;10330;48.816;9.278;2023-04-01T23:49:21;9.00;99.90
20345;DHT22;10330;48.816;9.278;2023-04-01T23:51:57;9.00;99.90
20345;DHT22;10330;48.816;9.278;2023-04-01T23:54:57;9.00;99.90
20345;DHT22;10330;48.816;9.278;2023-04-01T23:57:32;8.90;99.90
